sensor_id;sensor_type;location;lat;lon;timestamp;P1;durP1;ratioP1;P2;durP2;ratioP2
51560;SDS011;37654;51.262;17.058;2023-04-29T00:01:04;15.60;;;7.93;;
51560;SDS011;37654;51.262;17.058;2023-04-29T00:03:30;11.55;;;6.57;;
51560;SDS011;37654;51.262;17.058;2023-04-29T00:05:59;12.32;;;6.68;;
51560;SDS011;37654;51.262;17.058;2023-04-29T00:08:24;18.05;;;8.10;;
51560;SDS011;37654;51.262;17.058;2023-04-29T00:10:50;14.77;;;7.63;;
51560;SDS011;37654;51.262;17.058;2023-04-29T00:13:15;17.52;;;8.05;;
51560;SDS011;37654;51.262;17.058;2023-04-29T00:15:41;20.67;;;7.72;;
51560;SDS011;37654;51.262;17.058;2023-04-29T00:18:07;13.85;;;7.88;;
51560;SDS011;37654;51.262;17.058;2023-04-29T00:20:33;15.43;;;7.82;;
51560;SDS011;37654;51.262;17.058;2023-04-29T00:22:59;17.23;;;8.15;;
51560;SDS011;37654;51.262;17.058;2023-04-29T00:25:24;20.33;;;7.80;;
51560;SDS011;37654;51.262;17.058;2023-04-29T00:27:50;15.10;;;7.25;;
51560;SDS011;37654;51.262;17.058;2023-04-29T00:30:15;16.35;;;7.88;;
51560;SDS011;37654;51.262;17.058;2023-04-29T00:32:41;14.60;;;7.57;;
51560;SDS011;37654;51.262;17.058;2023-04-29T00:35:07;17.92;;;7.25;;
51560;SDS011;37654;51.262;17.058;2023-04-29T00:37:33;15.07;;;7.53;;
51560;SDS011;37654;51.262;17.058;2023-04-29T00:39:59;21.02;;;10.18;;
51560;SDS011;37654;51.262;17.058;2023-04-29T00:42:24;24.83;;;11.20;;
51560;SDS011;37654;51.262;17.058;2023-04-29T00:44:50;22.45;;;11.55;;
51560;SDS011;37654;51.262;17.058;2023-04-29T00:47:16;21.88;;;11.35;;
51560;SDS011;37654;51.262;17.058;2023-04-29T00:49:41;20.17;;;10.30;;
51560;SDS011;37654;51.262;17.058;2023-04-29T00:52:07;28.75;;;10.95;;
51560;SDS011;37654;51.262;17.058;2023-04-29T00:54:36;22.73;;;11.93;;
51560;SDS011;37654;51.262;17.058;2023-04-29T00:57:02;16.60;;;9.75;;
51560;SDS011;37654;51.262;17.058;2023-04-29T00:59:30;17.73;;;10.52;;
51560;SDS011;37654;51.262;17.058;2023-04-29T01:02:03;25.35;;;11.23;;
51560;SDS011;37654;51.262;17.058;2023-04-29T01:04:31;20.95;;;11.48;;
51560;SDS011;37654;51.262;17.058;2023-04-29T01:17:43;24.05;;;11.50;;
51560;SDS011;37654;51.262;17.058;2023-04-29T01:20:19;20.73;;;11.18;;
51560;SDS011;37654;51.262;17.058;2023-04-29T01:22:46;25.85;;;12.07;;
51560;SDS011;37654;51.262;17.058;2023-04-29T01:25:12;26.05;;;11.02;;
51560;SDS011;37654;51.262;17.058;2023-04-29T01:27:41;23.45;;;11.57;;
51560;SDS011;37654;51.262;17.058;2023-04-29T01:41:26;23.80;;;10.65;;
51560;SDS011;37654;51.262;17.058;2023-04-29T01:43:52;21.20;;;11.07;;
51560;SDS011;37654;51.262;17.058;2023-04-29T01:46:20;22.08;;;10.55;;
51560;SDS011;37654;51.262;17.058;2023-04-29T01:48:46;22.95;;;11.25;;
51560;SDS011;37654;51.262;17.058;2023-04-29T01:51:11;21.35;;;10.63;;
51560;SDS011;37654;51.262;17.058;2023-04-29T01:53:37;19.25;;;11.05;;
51560;SDS011;37654;51.262;17.058;2023-04-29T01:56:06;22.85;;;10.60;;
51560;SDS011;37654;51.262;17.058;2023-04-29T01:58:32;19.55;;;10.20;;
51560;SDS011;37654;51.262;17.058;2023-04-29T02:00:57;22.38;;;11.05;;
51560;SDS011;37654;51.262;17.058;2023-04-29T02:03:23;22.33;;;11.57;;
51560;SDS011;37654;51.262;17.058;2023-04-29T02:05:48;25.73;;;10.45;;
51560;SDS011;37654;51.262;17.058;2023-04-29T02:08:15;21.80;;;11.50;;
51560;SDS011;37654;51.262;17.058;2023-04-29T02:10:41;23.60;;;11.55;;
51560;SDS011;37654;51.262;17.058;2023-04-29T02:13:07;24.08;;;11.50;;
51560;SDS011;37654;51.262;17.058;2023-04-29T02:15:32;23.23;;;10.23;;
51560;SDS011;37654;51.262;17.058;2023-04-29T02:17:57;17.02;;;10.10;;
51560;SDS011;37654;51.262;17.058;2023-04-29T02:20:23;22.08;;;11.90;;
51560;SDS011;37654;51.262;17.058;2023-04-29T02:22:48;20.40;;;11.13;;
51560;SDS011;37654;51.262;17.058;2023-04-29T02:25:14;20.30;;;10.63;;
51560;SDS011;37654;51.262;17.058;2023-04-29T02:27:39;22.23;;;11.80;;
51560;SDS011;37654;51.262;17.058;2023-04-29T02:30:05;20.55;;;11.60;;
51560;SDS011;37654;51.262;17.058;2023-04-29T02:32:31;21.52;;;10.93;;
51560;SDS011;37654;51.262;17.058;2023-04-29T02:34:57;20.85;;;10.43;;
51560;SDS011;37654;51.262;17.058;2023-04-29T02:37:22;22.35;;;11.70;;
51560;SDS011;37654;51.262;17.058;2023-04-29T02:39:48;25.88;;;11.93;;
51560;SDS011;37654;51.262;17.058;2023-04-29T02:42:13;22.98;;;11.95;;
51560;SDS011;37654;51.262;17.058;2023-04-29T02:44:39;22.08;;;11.57;;
51560;SDS011;37654;51.262;17.058;2023-04-29T02:47:05;22.30;;;10.80;;
51560;SDS011;37654;51.262;17.058;2023-04-29T02:49:30;21.17;;;11.30;;
51560;SDS011;37654;51.262;17.058;2023-04-29T02:51:56;19.65;;;10.57;;
51560;SDS011;37654;51.262;17.058;2023-04-29T02:54:22;21.48;;;10.98;;
51560;SDS011;37654;51.262;17.058;2023-04-29T02:56:48;20.90;;;10.88;;
51560;SDS011;37654;51.262;17.058;2023-04-29T02:59:13;22.90;;;11.93;;
51560;SDS011;37654;51.262;17.058;2023-04-29T03:01:38;21.45;;;11.98;;
51560;SDS011;37654;51.262;17.058;2023-04-29T03:04:04;23.23;;;11.63;;
51560;SDS011;37654;51.262;17.058;2023-04-29T03:06:30;23.25;;;10.80;;
51560;SDS011;37654;51.262;17.058;2023-04-29T03:08:56;26.35;;;10.25;;
51560;SDS011;37654;51.262;17.058;2023-04-29T03:11:22;21.90;;;10.75;;
51560;SDS011;37654;51.262;17.058;2023-04-29T03:13:48;23.23;;;10.55;;
51560;SDS011;37654;51.262;17.058;2023-04-29T03:16:14;19.83;;;9.77;;
51560;SDS011;37654;51.262;17.058;2023-04-29T03:18:41;19.67;;;11.23;;
51560;SDS011;37654;51.262;17.058;2023-04-29T03:21:07;20.23;;;10.52;;
51560;SDS011;37654;51.262;17.058;2023-04-29T03:23:32;21.88;;;10.63;;
51560;SDS011;37654;51.262;17.058;2023-04-29T03:25:58;18.20;;;11.18;;
51560;SDS011;37654;51.262;17.058;2023-04-29T03:28:24;22.60;;;10.93;;
51560;SDS011;37654;51.262;17.058;2023-04-29T03:30:50;20.75;;;10.85;;
51560;SDS011;37654;51.262;17.058;2023-04-29T03:33:15;21.42;;;11.10;;
51560;SDS011;37654;51.262;17.058;2023-04-29T03:35:40;21.33;;;11.88;;
51560;SDS011;37654;51.262;17.058;2023-04-29T03:38:06;23.27;;;10.20;;
51560;SDS011;37654;51.262;17.058;2023-04-29T03:40:31;24.70;;;11.85;;
51560;SDS011;37654;51.262;17.058;2023-04-29T03:42:57;22.20;;;9.80;;
51560;SDS011;37654;51.262;17.058;2023-04-29T03:45:22;23.30;;;12.30;;
51560;SDS011;37654;51.262;17.058;2023-04-29T03:47:48;20.08;;;10.65;;
51560;SDS011;37654;51.262;17.058;2023-04-29T03:50:13;18.20;;;10.20;;
51560;SDS011;37654;51.262;17.058;2023-04-29T03:52:38;21.42;;;10.23;;
51560;SDS011;37654;51.262;17.058;2023-04-29T03:55:04;18.55;;;10.45;;
51560;SDS011;37654;51.262;17.058;2023-04-29T03:57:30;19.00;;;10.18;;
51560;SDS011;37654;51.262;17.058;2023-04-29T03:59:56;22.17;;;10.30;;
51560;SDS011;37654;51.262;17.058;2023-04-29T04:02:21;20.73;;;9.85;;
51560;SDS011;37654;51.262;17.058;2023-04-29T04:04:47;25.77;;;11.38;;
51560;SDS011;37654;51.262;17.058;2023-04-29T04:07:12;20.92;;;10.85;;
51560;SDS011;37654;51.262;17.058;2023-04-29T04:09:38;16.92;;;9.65;;
51560;SDS011;37654;51.262;17.058;2023-04-29T04:12:03;21.90;;;10.23;;
51560;SDS011;37654;51.262;17.058;2023-04-29T04:14:29;15.32;;;9.07;;
51560;SDS011;37654;51.262;17.058;2023-04-29T04:16:54;21.45;;;10.00;;
51560;SDS011;37654;51.262;17.058;2023-04-29T04:19:20;18.33;;;10.93;;
51560;SDS011;37654;51.262;17.058;2023-04-29T04:21:45;18.58;;;10.45;;
51560;SDS011;37654;51.262;17.058;2023-04-29T04:24:11;18.40;;;10.45;;
51560;SDS011;37654;51.262;17.058;2023-04-29T04:26:36;25.95;;;11.10;;
51560;SDS011;37654;51.262;17.058;2023-04-29T04:29:02;18.30;;;10.55;;
51560;SDS011;37654;51.262;17.058;2023-04-29T04:31:28;21.67;;;10.45;;
51560;SDS011;37654;51.262;17.058;2023-04-29T04:33:54;20.05;;;10.38;;
51560;SDS011;37654;51.262;17.058;2023-04-29T04:36:19;18.88;;;8.75;;
51560;SDS011;37654;51.262;17.058;2023-04-29T04:38:45;19.27;;;10.18;;
51560;SDS011;37654;51.262;17.058;2023-04-29T04:41:10;20.38;;;10.00;;
51560;SDS011;37654;51.262;17.058;2023-04-29T04:43:36;18.02;;;9.40;;
51560;SDS011;37654;51.262;17.058;2023-04-29T04:46:11;17.30;;;9.73;;
51560;SDS011;37654;51.262;17.058;2023-04-29T04:51:10;15.63;;;9.07;;
51560;SDS011;37654;51.262;17.058;2023-04-29T04:53:36;19.33;;;9.82;;
51560;SDS011;37654;51.262;17.058;2023-04-29T04:56:02;17.52;;;10.32;;
51560;SDS011;37654;51.262;17.058;2023-04-29T04:58:28;17.98;;;10.18;;
51560;SDS011;37654;51.262;17.058;2023-04-29T05:00:56;19.27;;;10.93;;
51560;SDS011;37654;51.262;17.058;2023-04-29T05:03:22;21.00;;;9.70;;
51560;SDS011;37654;51.262;17.058;2023-04-29T05:05:54;19.38;;;10.63;;
51560;SDS011;37654;51.262;17.058;2023-04-29T05:08:20;16.08;;;9.32;;
51560;SDS011;37654;51.262;17.058;2023-04-29T05:10:46;18.67;;;9.32;;
51560;SDS011;37654;51.262;17.058;2023-04-29T05:13:11;23.42;;;9.23;;
51560;SDS011;37654;51.262;17.058;2023-04-29T05:15:37;19.45;;;9.13;;
51560;SDS011;37654;51.262;17.058;2023-04-29T05:18:02;21.98;;;9.98;;
51560;SDS011;37654;51.262;17.058;2023-04-29T05:20:28;17.05;;;8.80;;
51560;SDS011;37654;51.262;17.058;2023-04-29T05:22:53;15.65;;;8.57;;
51560;SDS011;37654;51.262;17.058;2023-04-29T05:25:19;17.38;;;8.23;;
51560;SDS011;37654;51.262;17.058;2023-04-29T05:27:44;15.18;;;8.40;;
51560;SDS011;37654;51.262;17.058;2023-04-29T05:30:10;20.55;;;8.27;;
51560;SDS011;37654;51.262;17.058;2023-04-29T05:32:35;15.10;;;8.88;;
51560;SDS011;37654;51.262;17.058;2023-04-29T05:35:01;14.55;;;8.10;;
51560;SDS011;37654;51.262;17.058;2023-04-29T05:37:26;12.57;;;7.18;;
51560;SDS011;37654;51.262;17.058;2023-04-29T05:39:55;11.85;;;7.68;;
51560;SDS011;37654;51.262;17.058;2023-04-29T05:42:21;10.27;;;6.95;;
51560;SDS011;37654;51.262;17.058;2023-04-29T05:44:47;10.32;;;6.82;;
51560;SDS011;37654;51.262;17.058;2023-04-29T05:47:13;16.10;;;7.43;;
51560;SDS011;37654;51.262;17.058;2023-04-29T05:49:38;13.43;;;8.18;;
51560;SDS011;37654;51.262;17.058;2023-04-29T05:52:03;9.98;;;6.50;;
51560;SDS011;37654;51.262;17.058;2023-04-29T05:54:31;14.50;;;7.57;;
51560;SDS011;37654;51.262;17.058;2023-04-29T05:56:57;12.30;;;8.00;;
51560;SDS011;37654;51.262;17.058;2023-04-29T05:59:26;16.60;;;8.98;;
51560;SDS011;37654;51.262;17.058;2023-04-29T06:01:53;19.42;;;8.65;;
51560;SDS011;37654;51.262;17.058;2023-04-29T06:04:18;10.60;;;6.85;;
51560;SDS011;37654;51.262;17.058;2023-04-29T06:06:44;13.43;;;7.50;;
51560;SDS011;37654;51.262;17.058;2023-04-29T06:09:10;12.70;;;7.78;;
51560;SDS011;37654;51.262;17.058;2023-04-29T06:11:35;18.15;;;7.53;;
51560;SDS011;37654;51.262;17.058;2023-04-29T06:14:01;14.98;;;8.05;;
51560;SDS011;37654;51.262;17.058;2023-04-29T06:16:27;14.75;;;7.38;;
51560;SDS011;37654;51.262;17.058;2023-04-29T06:18:53;9.05;;;6.25;;
51560;SDS011;37654;51.262;17.058;2023-04-29T06:21:19;13.55;;;8.00;;
51560;SDS011;37654;51.262;17.058;2023-04-29T06:23:44;16.80;;;7.88;;
51560;SDS011;37654;51.262;17.058;2023-04-29T06:26:10;13.05;;;7.45;;
51560;SDS011;37654;51.262;17.058;2023-04-29T06:28:35;10.68;;;7.68;;
51560;SDS011;37654;51.262;17.058;2023-04-29T06:31:01;15.50;;;7.65;;
51560;SDS011;37654;51.262;17.058;2023-04-29T06:33:28;15.63;;;8.30;;
51560;SDS011;37654;51.262;17.058;2023-04-29T06:35:56;13.15;;;7.85;;
51560;SDS011;37654;51.262;17.058;2023-04-29T06:38:22;15.48;;;8.20;;
51560;SDS011;37654;51.262;17.058;2023-04-29T06:40:47;18.10;;;8.27;;
51560;SDS011;37654;51.262;17.058;2023-04-29T06:43:13;18.52;;;9.10;;
51560;SDS011;37654;51.262;17.058;2023-04-29T06:45:38;13.50;;;7.82;;
51560;SDS011;37654;51.262;17.058;2023-04-29T06:48:04;12.82;;;7.63;;
51560;SDS011;37654;51.262;17.058;2023-04-29T06:50:29;14.88;;;8.70;;
51560;SDS011;37654;51.262;17.058;2023-04-29T06:52:55;15.68;;;10.10;;
51560;SDS011;37654;51.262;17.058;2023-04-29T06:55:20;13.95;;;7.95;;
51560;SDS011;37654;51.262;17.058;2023-04-29T06:57:46;15.70;;;8.15;;
51560;SDS011;37654;51.262;17.058;2023-04-29T07:00:11;17.88;;;9.10;;
51560;SDS011;37654;51.262;17.058;2023-04-29T07:02:37;17.08;;;8.60;;
51560;SDS011;37654;51.262;17.058;2023-04-29T07:05:03;17.30;;;8.50;;
51560;SDS011;37654;51.262;17.058;2023-04-29T07:07:29;21.23;;;8.88;;
51560;SDS011;37654;51.262;17.058;2023-04-29T07:09:54;15.02;;;8.68;;
51560;SDS011;37654;51.262;17.058;2023-04-29T07:12:20;13.60;;;8.43;;
51560;SDS011;37654;51.262;17.058;2023-04-29T07:14:45;16.77;;;8.35;;
51560;SDS011;37654;51.262;17.058;2023-04-29T07:17:11;15.93;;;8.15;;
51560;SDS011;37654;51.262;17.058;2023-04-29T07:19:36;17.00;;;8.05;;
51560;SDS011;37654;51.262;17.058;2023-04-29T07:22:02;12.65;;;7.63;;
51560;SDS011;37654;51.262;17.058;2023-04-29T07:24:28;17.75;;;8.43;;
51560;SDS011;37654;51.262;17.058;2023-04-29T07:26:53;16.67;;;8.60;;
51560;SDS011;37654;51.262;17.058;2023-04-29T07:29:19;16.70;;;9.43;;
51560;SDS011;37654;51.262;17.058;2023-04-29T07:31:45;14.55;;;8.65;;
51560;SDS011;37654;51.262;17.058;2023-04-29T07:34:10;15.70;;;9.30;;
51560;SDS011;37654;51.262;17.058;2023-04-29T07:36:36;14.68;;;9.75;;
51560;SDS011;37654;51.262;17.058;2023-04-29T07:39:02;17.13;;;9.82;;
51560;SDS011;37654;51.262;17.058;2023-04-29T07:41:27;15.68;;;9.68;;
51560;SDS011;37654;51.262;17.058;2023-04-29T07:43:52;14.85;;;10.07;;
51560;SDS011;37654;51.262;17.058;2023-04-29T07:46:18;14.95;;;9.93;;
51560;SDS011;37654;51.262;17.058;2023-04-29T07:48:43;18.73;;;10.30;;
51560;SDS011;37654;51.262;17.058;2023-04-29T07:51:13;26.02;;;10.77;;
51560;SDS011;37654;51.262;17.058;2023-04-29T07:53:39;17.60;;;10.02;;
51560;SDS011;37654;51.262;17.058;2023-04-29T07:56:05;19.50;;;10.63;;
51560;SDS011;37654;51.262;17.058;2023-04-29T07:58:31;16.40;;;10.27;;
51560;SDS011;37654;51.262;17.058;2023-04-29T08:01:03;14.82;;;10.32;;
51560;SDS011;37654;51.262;17.058;2023-04-29T08:03:33;19.30;;;11.18;;
51560;SDS011;37654;51.262;17.058;2023-04-29T08:06:02;20.05;;;11.45;;
51560;SDS011;37654;51.262;17.058;2023-04-29T08:08:29;20.58;;;10.85;;
51560;SDS011;37654;51.262;17.058;2023-04-29T08:10:55;21.80;;;10.75;;
51560;SDS011;37654;51.262;17.058;2023-04-29T08:13:20;18.52;;;11.80;;
51560;SDS011;37654;51.262;17.058;2023-04-29T08:15:46;20.02;;;13.05;;
51560;SDS011;37654;51.262;17.058;2023-04-29T08:18:11;16.88;;;10.93;;
51560;SDS011;37654;51.262;17.058;2023-04-29T08:20:37;18.80;;;10.32;;
51560;SDS011;37654;51.262;17.058;2023-04-29T08:23:02;17.00;;;11.30;;
51560;SDS011;37654;51.262;17.058;2023-04-29T08:25:28;20.00;;;11.50;;
51560;SDS011;37654;51.262;17.058;2023-04-29T08:27:54;17.80;;;11.15;;
51560;SDS011;37654;51.262;17.058;2023-04-29T08:30:20;16.02;;;10.85;;
51560;SDS011;37654;51.262;17.058;2023-04-29T08:32:45;21.58;;;11.75;;
51560;SDS011;37654;51.262;17.058;2023-04-29T08:35:11;20.65;;;12.38;;
51560;SDS011;37654;51.262;17.058;2023-04-29T08:37:37;15.15;;;10.90;;
51560;SDS011;37654;51.262;17.058;2023-04-29T08:40:02;16.75;;;10.15;;
51560;SDS011;37654;51.262;17.058;2023-04-29T08:42:32;18.58;;;10.52;;
51560;SDS011;37654;51.262;17.058;2023-04-29T08:45:00;18.45;;;10.77;;
51560;SDS011;37654;51.262;17.058;2023-04-29T08:47:31;16.38;;;10.13;;
51560;SDS011;37654;51.262;17.058;2023-04-29T08:50:06;17.75;;;12.07;;
51560;SDS011;37654;51.262;17.058;2023-04-29T08:54:58;19.73;;;11.97;;
51560;SDS011;37654;51.262;17.058;2023-04-29T08:57:26;21.00;;;11.38;;
51560;SDS011;37654;51.262;17.058;2023-04-29T08:59:53;21.15;;;11.48;;
51560;SDS011;37654;51.262;17.058;2023-04-29T09:02:19;22.63;;;12.13;;
51560;SDS011;37654;51.262;17.058;2023-04-29T09:04:51;20.75;;;12.35;;
51560;SDS011;37654;51.262;17.058;2023-04-29T09:07:22;18.95;;;11.40;;
51560;SDS011;37654;51.262;17.058;2023-04-29T09:09:48;19.73;;;11.38;;
51560;SDS011;37654;51.262;17.058;2023-04-29T09:12:15;21.20;;;12.25;;
51560;SDS011;37654;51.262;17.058;2023-04-29T09:14:41;20.27;;;12.48;;
51560;SDS011;37654;51.262;17.058;2023-04-29T09:17:06;19.65;;;12.02;;
51560;SDS011;37654;51.262;17.058;2023-04-29T09:19:35;17.35;;;10.57;;
51560;SDS011;37654;51.262;17.058;2023-04-29T09:22:01;16.98;;;11.85;;
51560;SDS011;37654;51.262;17.058;2023-04-29T09:24:28;15.50;;;10.18;;
51560;SDS011;37654;51.262;17.058;2023-04-29T09:26:55;15.77;;;9.88;;
51560;SDS011;37654;51.262;17.058;2023-04-29T09:29:22;13.82;;;9.75;;
51560;SDS011;37654;51.262;17.058;2023-04-29T09:31:48;18.33;;;10.25;;
51560;SDS011;37654;51.262;17.058;2023-04-29T09:34:14;15.38;;;10.60;;
51560;SDS011;37654;51.262;17.058;2023-04-29T09:39:13;15.20;;;10.52;;
51560;SDS011;37654;51.262;17.058;2023-04-29T09:46:54;11.07;;;8.50;;
51560;SDS011;37654;51.262;17.058;2023-04-29T09:49:22;11.80;;;8.07;;
51560;SDS011;37654;51.262;17.058;2023-04-29T09:51:52;10.30;;;7.82;;
51560;SDS011;37654;51.262;17.058;2023-04-29T09:54:21;10.25;;;7.40;;
51560;SDS011;37654;51.262;17.058;2023-04-29T09:56:50;9.52;;;7.22;;
51560;SDS011;37654;51.262;17.058;2023-04-29T09:59:17;10.90;;;6.43;;
51560;SDS011;37654;51.262;17.058;2023-04-29T10:01:43;12.90;;;7.50;;
51560;SDS011;37654;51.262;17.058;2023-04-29T10:04:20;7.95;;;7.07;;
51560;SDS011;37654;51.262;17.058;2023-04-29T10:06:48;11.00;;;7.72;;
51560;SDS011;37654;51.262;17.058;2023-04-29T10:09:15;9.20;;;6.63;;
51560;SDS011;37654;51.262;17.058;2023-04-29T10:11:42;11.40;;;6.70;;
51560;SDS011;37654;51.262;17.058;2023-04-29T10:14:15;9.65;;;6.32;;
51560;SDS011;37654;51.262;17.058;2023-04-29T10:17:06;9.60;;;6.60;;
51560;SDS011;37654;51.262;17.058;2023-04-29T10:19:38;11.18;;;6.30;;
51560;SDS011;37654;51.262;17.058;2023-04-29T10:22:21;9.43;;;6.55;;
51560;SDS011;37654;51.262;17.058;2023-04-29T10:24:53;7.18;;;5.43;;
51560;SDS011;37654;51.262;17.058;2023-04-29T10:27:20;10.63;;;6.10;;
51560;SDS011;37654;51.262;17.058;2023-04-29T10:29:47;7.60;;;5.10;;
51560;SDS011;37654;51.262;17.058;2023-04-29T10:32:14;9.18;;;5.82;;
51560;SDS011;37654;51.262;17.058;2023-04-29T10:34:43;7.63;;;4.72;;
51560;SDS011;37654;51.262;17.058;2023-04-29T10:37:09;6.05;;;4.32;;
51560;SDS011;37654;51.262;17.058;2023-04-29T10:39:41;7.22;;;4.20;;
51560;SDS011;37654;51.262;17.058;2023-04-29T10:50:30;4.93;;;3.67;;
51560;SDS011;37654;51.262;17.058;2023-04-29T10:52:56;5.10;;;4.13;;
51560;SDS011;37654;51.262;17.058;2023-04-29T10:55:25;5.88;;;3.40;;
51560;SDS011;37654;51.262;17.058;2023-04-29T10:57:54;5.53;;;4.45;;
51560;SDS011;37654;51.262;17.058;2023-04-29T11:00:27;6.15;;;4.03;;
51560;SDS011;37654;51.262;17.058;2023-04-29T11:02:58;5.38;;;3.95;;
51560;SDS011;37654;51.262;17.058;2023-04-29T11:05:32;6.55;;;4.00;;
51560;SDS011;37654;51.262;17.058;2023-04-29T11:10:47;5.07;;;4.05;;
51560;SDS011;37654;51.262;17.058;2023-04-29T11:13:26;4.35;;;3.42;;
51560;SDS011;37654;51.262;17.058;2023-04-29T11:15:59;4.60;;;3.50;;
51560;SDS011;37654;51.262;17.058;2023-04-29T11:18:32;5.25;;;3.40;;
51560;SDS011;37654;51.262;17.058;2023-04-29T11:23:30;3.75;;;2.90;;
51560;SDS011;37654;51.262;17.058;2023-04-29T11:25:58;5.35;;;3.10;;
51560;SDS011;37654;51.262;17.058;2023-04-29T11:28:24;4.13;;;3.35;;
51560;SDS011;37654;51.262;17.058;2023-04-29T11:30:52;3.38;;;2.97;;
51560;SDS011;37654;51.262;17.058;2023-04-29T11:33:20;4.40;;;3.22;;
51560;SDS011;37654;51.262;17.058;2023-04-29T11:35:46;6.63;;;3.85;;
51560;SDS011;37654;51.262;17.058;2023-04-29T11:38:11;4.22;;;3.33;;
51560;SDS011;37654;51.262;17.058;2023-04-29T11:40:41;5.28;;;2.78;;
51560;SDS011;37654;51.262;17.058;2023-04-29T11:43:06;6.75;;;2.80;;
51560;SDS011;37654;51.262;17.058;2023-04-29T11:45:34;4.47;;;3.17;;
51560;SDS011;37654;51.262;17.058;2023-04-29T11:48:00;4.32;;;2.92;;
51560;SDS011;37654;51.262;17.058;2023-04-29T11:50:26;5.47;;;3.42;;
51560;SDS011;37654;51.262;17.058;2023-04-29T11:52:52;6.22;;;3.30;;
51560;SDS011;37654;51.262;17.058;2023-04-29T11:55:17;6.38;;;3.45;;
51560;SDS011;37654;51.262;17.058;2023-04-29T11:57:43;3.17;;;2.30;;
51560;SDS011;37654;51.262;17.058;2023-04-29T12:00:10;3.55;;;2.60;;
51560;SDS011;37654;51.262;17.058;2023-04-29T12:02:37;2.80;;;2.35;;
51560;SDS011;37654;51.262;17.058;2023-04-29T12:05:06;4.00;;;2.30;;
51560;SDS011;37654;51.262;17.058;2023-04-29T12:07:32;5.97;;;2.70;;
51560;SDS011;37654;51.262;17.058;2023-04-29T12:09:59;2.97;;;2.53;;
51560;SDS011;37654;51.262;17.058;2023-04-29T12:12:25;8.40;;;3.38;;
51560;SDS011;37654;51.262;17.058;2023-04-29T12:14:55;3.45;;;2.80;;
51560;SDS011;37654;51.262;17.058;2023-04-29T12:17:21;6.25;;;3.25;;
51560;SDS011;37654;51.262;17.058;2023-04-29T12:19:47;4.82;;;3.38;;
51560;SDS011;37654;51.262;17.058;2023-04-29T12:22:13;6.15;;;3.28;;
51560;SDS011;37654;51.262;17.058;2023-04-29T12:24:38;5.65;;;3.78;;
51560;SDS011;37654;51.262;17.058;2023-04-29T12:27:08;5.85;;;3.20;;
51560;SDS011;37654;51.262;17.058;2023-04-29T12:29:37;6.10;;;3.20;;
51560;SDS011;37654;51.262;17.058;2023-04-29T12:32:04;4.65;;;3.10;;
51560;SDS011;37654;51.262;17.058;2023-04-29T12:34:31;4.93;;;3.17;;
51560;SDS011;37654;51.262;17.058;2023-04-29T12:37:00;4.28;;;3.33;;
51560;SDS011;37654;51.262;17.058;2023-04-29T12:39:26;3.95;;;2.55;;
51560;SDS011;37654;51.262;17.058;2023-04-29T12:41:59;4.13;;;2.92;;
51560;SDS011;37654;51.262;17.058;2023-04-29T12:44:25;3.35;;;3.05;;
51560;SDS011;37654;51.262;17.058;2023-04-29T12:47:05;6.30;;;4.40;;
51560;SDS011;37654;51.262;17.058;2023-04-29T12:49:34;8.30;;;3.38;;
51560;SDS011;37654;51.262;17.058;2023-04-29T12:52:06;5.38;;;3.17;;
51560;SDS011;37654;51.262;17.058;2023-04-29T12:54:34;5.32;;;4.20;;
51560;SDS011;37654;51.262;17.058;2023-04-29T12:57:09;5.03;;;3.78;;
51560;SDS011;37654;51.262;17.058;2023-04-29T12:59:35;8.30;;;4.95;;
51560;SDS011;37654;51.262;17.058;2023-04-29T13:02:01;7.30;;;4.63;;
51560;SDS011;37654;51.262;17.058;2023-04-29T13:04:26;5.78;;;4.82;;
51560;SDS011;37654;51.262;17.058;2023-04-29T13:06:52;4.50;;;3.58;;
51560;SDS011;37654;51.262;17.058;2023-04-29T13:09:24;4.50;;;3.35;;
51560;SDS011;37654;51.262;17.058;2023-04-29T13:11:49;3.10;;;2.75;;
51560;SDS011;37654;51.262;17.058;2023-04-29T13:14:15;4.18;;;2.40;;
51560;SDS011;37654;51.262;17.058;2023-04-29T13:16:41;2.50;;;2.15;;
51560;SDS011;37654;51.262;17.058;2023-04-29T13:19:07;3.72;;;2.70;;
51560;SDS011;37654;51.262;17.058;2023-04-29T13:21:32;4.18;;;2.78;;
51560;SDS011;37654;51.262;17.058;2023-04-29T13:23:57;8.30;;;3.17;;
51560;SDS011;37654;51.262;17.058;2023-04-29T13:26:23;3.25;;;2.60;;
51560;SDS011;37654;51.262;17.058;2023-04-29T13:28:49;4.60;;;3.50;;
51560;SDS011;37654;51.262;17.058;2023-04-29T13:31:15;5.40;;;3.10;;
51560;SDS011;37654;51.262;17.058;2023-04-29T13:33:41;4.07;;;3.40;;
51560;SDS011;37654;51.262;17.058;2023-04-29T13:36:07;7.25;;;4.18;;
51560;SDS011;37654;51.262;17.058;2023-04-29T13:38:33;4.93;;;3.60;;
51560;SDS011;37654;51.262;17.058;2023-04-29T13:40:59;5.10;;;3.63;;
51560;SDS011;37654;51.262;17.058;2023-04-29T13:43:24;4.72;;;3.53;;
51560;SDS011;37654;51.262;17.058;2023-04-29T13:45:50;6.07;;;4.88;;
51560;SDS011;37654;51.262;17.058;2023-04-29T13:48:16;5.35;;;3.08;;
51560;SDS011;37654;51.262;17.058;2023-04-29T13:50:41;4.45;;;2.58;;
51560;SDS011;37654;51.262;17.058;2023-04-29T13:53:08;5.93;;;3.45;;
51560;SDS011;37654;51.262;17.058;2023-04-29T13:55:33;3.65;;;2.35;;
51560;SDS011;37654;51.262;17.058;2023-04-29T13:58:00;4.25;;;1.98;;
51560;SDS011;37654;51.262;17.058;2023-04-29T14:00:25;2.40;;;1.90;;
51560;SDS011;37654;51.262;17.058;2023-04-29T14:02:51;5.40;;;2.17;;
51560;SDS011;37654;51.262;17.058;2023-04-29T14:05:16;1.77;;;1.10;;
51560;SDS011;37654;51.262;17.058;2023-04-29T14:07:42;1.80;;;1.27;;
51560;SDS011;37654;51.262;17.058;2023-04-29T14:10:07;5.38;;;1.33;;
51560;SDS011;37654;51.262;17.058;2023-04-29T14:12:33;2.75;;;1.50;;
51560;SDS011;37654;51.262;17.058;2023-04-29T14:14:58;4.65;;;1.55;;
51560;SDS011;37654;51.262;17.058;2023-04-29T14:17:24;3.92;;;1.30;;
51560;SDS011;37654;51.262;17.058;2023-04-29T14:19:49;2.38;;;1.70;;
51560;SDS011;37654;51.262;17.058;2023-04-29T14:22:15;2.80;;;1.95;;
51560;SDS011;37654;51.262;17.058;2023-04-29T14:24:40;5.97;;;2.25;;
51560;SDS011;37654;51.262;17.058;2023-04-29T14:27:06;5.13;;;2.58;;
51560;SDS011;37654;51.262;17.058;2023-04-29T14:29:31;4.20;;;2.67;;
51560;SDS011;37654;51.262;17.058;2023-04-29T14:31:56;3.17;;;1.98;;
51560;SDS011;37654;51.262;17.058;2023-04-29T14:34:22;4.03;;;2.40;;
51560;SDS011;37654;51.262;17.058;2023-04-29T14:36:47;5.00;;;2.60;;
51560;SDS011;37654;51.262;17.058;2023-04-29T14:39:13;4.50;;;3.15;;
51560;SDS011;37654;51.262;17.058;2023-04-29T14:41:38;4.80;;;3.22;;
51560;SDS011;37654;51.262;17.058;2023-04-29T14:44:04;5.82;;;3.38;;
51560;SDS011;37654;51.262;17.058;2023-04-29T14:46:32;15.00;;;9.07;;
51560;SDS011;37654;51.262;17.058;2023-04-29T14:48:58;12.60;;;8.45;;
51560;SDS011;37654;51.262;17.058;2023-04-29T14:51:24;10.48;;;6.10;;
51560;SDS011;37654;51.262;17.058;2023-04-29T14:53:49;13.55;;;10.00;;
51560;SDS011;37654;51.262;17.058;2023-04-29T14:56:16;17.83;;;11.13;;
51560;SDS011;37654;51.262;17.058;2023-04-29T14:58:41;12.27;;;8.88;;
51560;SDS011;37654;51.262;17.058;2023-04-29T15:01:07;14.00;;;8.52;;
51560;SDS011;37654;51.262;17.058;2023-04-29T15:03:33;10.23;;;5.82;;
51560;SDS011;37654;51.262;17.058;2023-04-29T15:05:59;11.05;;;6.32;;